Time,TemperatureF,DewpointF,PressureIn,WindDirection,WindDirectionDegrees,WindSpeedMPH,WindSpeedGustMPH,Humidity,HourlyPrecipIn,Conditions,Clouds,dailyrainin,SoftwareType,DateUTC
2013-07-03 00:11:00,74.0,74.0,30.10,SE,124,0.0,4.0,100,99.99,,,-99.99,,2013-07-03 04:11:00,
2013-07-03 00:22:00,74.0,74.0,30.10,SE,129,0.0,3.0,100,99.99,,,-99.99,,2013-07-03 04:22:00,
2013-07-03 00:43:00,74.0,74.0,30.09,SSE,156,0.0,3.0,100,99.99,,,-99.99,,2013-07-03 04:43:00,
2013-07-03 00:52:00,74.0,74.0,30.09,SSE,156,0.0,3.0,100,99.99,,,-99.99,,2013-07-03 04:52:00,
2013-07-03 01:11:00,75.0,75.0,30.09,SE,128,3.0,8.0,100,99.99,,,-99.99,,2013-07-03 05:11:00,
2013-07-03 01:23:00,75.0,75.0,30.09,SE,128,3.0,8.0,100,99.99,,,-99.99,,2013-07-03 05:23:00,
2013-07-03 01:47:00,75.0,75.0,30.08,North,0,0.0,0.0,100,99.99,,,-99.99,,2013-07-03 05:47:00,
2013-07-03 01:56:00,75.0,75.0,30.08,ESE,103,1.0,4.0,100,99.99,,,-99.99,,2013-07-03 05:56:00,
2013-07-03 02:14:00,75.0,75.0,30.07,North,0,0.0,0.0,100,99.99,,,-99.99,,2013-07-03 06:14:00,
2013-07-03 02:54:00,75.0,75.0,30.07,ESE,121,1.0,4.0,100,99.99,,,-99.99,,2013-07-03 06:54:00,
2013-07-03 03:06:00,74.0,74.0,30.07,ESE,122,1.0,3.0,100,99.99,,,-99.99,,2013-07-03 07:06:00,
2013-07-03 03:15:00,74.0,74.0,30.06,ESE,118,2.0,4.0,100,99.99,,,-99.99,,2013-07-03 07:15:00,
2013-07-03 03:37:00,74.0,74.0,30.06,SE,128,1.0,3.0,100,99.99,,,-99.99,,2013-07-03 07:37:00,
2013-07-03 03:47:00,74.0,74.0,30.06,SE,125,1.0,4.0,100,99.99,,,-99.99,,2013-07-03 07:47:00,
2013-07-03 03:56:00,74.0,74.0,30.06,North,0,0.0,0.0,100,99.99,,,-99.99,,2013-07-03 07:56:00,
2013-07-03 04:16:00,74.0,74.0,30.07,North,0,0.0,0.0,100,99.99,,,-99.99,,2013-07-03 08:16:00,
2013-07-03 04:25:00,74.0,74.0,30.07,North,0,0.0,0.0,100,99.99,,,-99.99,,2013-07-03 08:25:00,
2013-07-03 04:37:00,74.0,74.0,30.07,North,0,0.0,0.0,100,99.99,,,-99.99,,2013-07-03 08:37:00,
2013-07-03 04:45:00,74.0,74.0,30.07,North,0,0.0,0.0,100,99.99,,,-99.99,,2013-07-03 08:45:00,
2013-07-03 04:56:00,74.0,74.0,30.07,North,0,0.0,0.0,100,99.99,,,-99.99,,2013-07-03 08:56:00,
2013-07-03 05:07:00,73.0,73.0,30.06,North,0,0.0,0.0,100,99.99,,,-99.99,,2013-07-03 09:07:00,
2013-07-03 05:16:00,73.0,73.0,30.06,North,0,0.0,0.0,100,99.99,,,-99.99,,2013-07-03 09:16:00,
2013-07-03 05:25:00,73.0,73.0,30.06,North,0,0.0,0.0,100,99.99,,,-99.99,,2013-07-03 09:25:00,
2013-07-03 05:56:00,73.0,73.0,30.07,North,0,0.0,0.0,100,99.99,,,-99.99,,2013-07-03 09:56:00,
2013-07-03 06:05:00,73.0,73.0,30.07,SE,132,1.0,3.0,100,99.99,,,-99.99,,2013-07-03 10:05:00,
2013-07-03 06:36:00,73.0,73.0,30.08,North,0,0.0,0.0,100,99.99,,,-99.99,,2013-07-03 10:36:00,
2013-07-03 06:45:00,72.0,72.0,30.08,North,0,0.0,0.0,100,99.99,,,-99.99,,2013-07-03 10:45:00,
2013-07-03 07:43:00,73.0,73.0,30.09,North,0,0.0,0.0,100,99.99,,,-99.99,,2013-07-03 11:43:00,
2013-07-03 07:53:00,73.0,73.0,30.09,SE,132,0.0,1.0,100,99.99,,,-99.99,,2013-07-03 11:53:00,
2013-07-03 08:43:00,76.0,76.0,30.11,SSE,160,4.0,9.0,100,99.99,,,-99.99,,2013-07-03 12:43:00,
2013-07-03 08:57:00,76.0,76.0,30.11,ESE,103,5.0,9.0,100,99.99,,,-99.99,,2013-07-03 12:57:00,
2013-07-03 09:47:00,81.0,79.0,30.11,SE,131,5.0,8.0,95,99.99,,,-99.99,,2013-07-03 13:47:00,
2013-07-03 09:54:00,82.0,77.0,30.11,South,183,7.0,14.0,86,99.99,,,-99.99,,2013-07-03 13:54:00,
2013-07-03 10:15:00,83.0,75.0,30.11,ESE,114,8.0,13.0,77,99.99,,,-99.99,,2013-07-03 14:15:00,
2013-07-03 10:37:00,84.0,74.0,30.11,South,172,8.0,12.0,73,99.99,,,-99.99,,2013-07-03 14:37:00,
2013-07-03 11:05:00,87.0,75.0,30.11,South,183,6.0,11.0,67,99.99,,,-99.99,,2013-07-03 15:05:00,
2013-07-03 11:37:00,87.0,74.0,30.11,SE,146,8.0,16.0,66,99.99,,,-99.99,,2013-07-03 15:37:00,
2013-07-03 11:47:00,86.0,74.0,30.11,SSW,212,7.0,11.0,67,99.99,,,-99.99,,2013-07-03 15:47:00,
2013-07-03 11:55:00,86.0,74.0,30.11,SSE,165,7.0,11.0,67,99.99,,,-99.99,,2013-07-03 15:55:00,
2013-07-03 12:38:00,88.0,73.0,30.10,SSW,208,7.0,17.0,62,99.99,,,-99.99,,2013-07-03 16:38:00,
2013-07-03 12:46:00,89.0,73.0,30.09,SSE,159,9.0,15.0,60,99.99,,,-99.99,,2013-07-03 16:46:00,
2013-07-03 13:40:00,80.0,73.0,30.11,South,181,9.0,15.0,80,99.99,,,-99.99,,2013-07-03 17:40:00,
2013-07-03 14:36:00,79.0,77.0,30.08,ESE,122,5.0,9.0,94,99.99,,,-99.99,,2013-07-03 18:36:00,
2013-07-03 14:45:00,80.0,76.0,30.07,SE,128,5.0,8.0,88,99.99,,,-99.99,,2013-07-03 18:45:00,
2013-07-03 14:56:00,80.0,76.0,30.07,ESE,110,5.0,10.0,88,99.99,,,-99.99,,2013-07-03 18:56:00,
2013-07-03 15:37:00,83.0,75.0,30.06,ESE,118,6.0,11.0,78,99.99,,,-99.99,,2013-07-03 19:37:00,
2013-07-03 15:46:00,83.0,75.0,30.07,SSE,149,6.0,12.0,76,99.99,,,-99.99,,2013-07-03 19:46:00,
2013-07-03 16:37:00,83.0,73.0,30.06,SE,145,7.0,12.0,72,99.99,,,-99.99,,2013-07-03 20:37:00,
2013-07-03 16:44:00,83.0,73.0,30.06,SSE,160,4.0,8.0,73,99.99,,,-99.99,,2013-07-03 20:44:00,
2013-07-03 17:44:00,83.0,74.0,30.06,SSE,155,7.0,14.0,74,99.99,,,-99.99,,2013-07-03 21:44:00,
2013-07-03 17:53:00,83.0,74.0,30.06,SSE,155,6.0,12.0,74,99.99,,,-99.99,,2013-07-03 21:53:00,
2013-07-03 18:37:00,83.0,75.0,30.07,SE,139,2.0,7.0,76,99.99,,,-99.99,,2013-07-03 22:37:00,
2013-07-03 18:45:00,83.0,75.0,30.06,SSE,156,4.0,9.0,76,99.99,,,-99.99,,2013-07-03 22:45:00,
2013-07-03 19:14:00,80.0,73.0,30.09,SW,222,11.0,17.0,79,99.99,,,-99.99,,2013-07-03 23:14:00,
2013-07-03 19:39:00,76.0,75.0,30.09,West,274,2.0,4.0,97,99.99,,,-99.99,,2013-07-03 23:39:00,
2013-07-03 19:45:00,75.0,75.0,30.09,North,0,0.0,0.0,99,99.99,,,-99.99,,2013-07-03 23:45:00,
2013-07-03 19:54:00,75.0,75.0,30.09,ESE,110,0.0,2.0,100,99.99,,,-99.99,,2013-07-03 23:54:00,
2013-07-03 20:04:00,75.0,75.0,30.09,North,10,1.0,3.0,100,99.99,,,-99.99,,2013-07-04 00:04:00,
2013-07-03 20:16:00,75.0,75.0,30.09,ENE,69,0.0,2.0,100,99.99,,,-99.99,,2013-07-04 00:16:00,
2013-07-03 20:25:00,75.0,75.0,30.09,North,0,0.0,0.0,100,99.99,,,-99.99,,2013-07-04 00:25:00,
2013-07-03 20:36:00,75.0,75.0,30.10,North,0,0.0,0.0,100,99.99,,,-99.99,,2013-07-04 00:36:00,
2013-07-03 20:55:00,75.0,75.0,30.11,ESE,111,4.0,7.0,100,99.99,,,-99.99,,2013-07-04 00:55:00,
2013-07-03 21:03:00,75.0,75.0,30.11,SE,134,3.0,6.0,100,99.99,,,-99.99,,2013-07-04 01:03:00,
2013-07-03 21:15:00,75.0,75.0,30.11,SE,134,3.0,6.0,100,99.99,,,-99.99,,2013-07-04 01:15:00,
2013-07-03 21:38:00,75.0,75.0,30.13,SSW,208,4.0,6.0,100,99.99,,,-99.99,,2013-07-04 01:38:00,
2013-07-03 21:43:00,75.0,75.0,30.14,SW,217,5.0,8.0,100,99.99,,,-99.99,,2013-07-04 01:43:00,
2013-07-03 21:54:00,75.0,75.0,30.13,SSW,195,3.0,7.0,100,99.99,,,-99.99,,2013-07-04 01:54:00,
2013-07-03 22:07:00,74.0,74.0,30.12,North,0,0.0,0.0,100,99.99,,,-99.99,,2013-07-04 02:07:00,
2013-07-03 22:47:00,74.0,74.0,30.13,North,0,0.0,0.0,100,99.99,,,-99.99,,2013-07-04 02:47:00,
2013-07-03 23:27:00,74.0,74.0,30.13,North,0,0.0,0.0,100,99.99,,,-99.99,,2013-07-04 03:27:00,
2013-07-03 23:35:00,74.0,74.0,30.14,North,0,0.0,0.0,100,99.99,,,-99.99,,2013-07-04 03:35:00,
2013-07-03 23:46:00,74.0,74.0,30.14,North,0,0.0,0.0,100,99.99,,,-99.99,,2013-07-04 03:46:00,
2013-07-03 23:56:00,74.0,74.0,30.14,South,177,0.0,3.0,100,99.99,,,-99.99,,2013-07-04 03:56:00,